createdAt,value
2022-11-08T00:00:39.214Z,11.90
2022-11-08T00:03:08.198Z,11.90
2022-11-08T00:05:54.401Z,11.90
2022-11-08T00:08:40.657Z,12.00
2022-11-08T00:11:26.877Z,12.00
2022-11-08T00:13:59.723Z,12.00
2022-11-08T00:16:28.747Z,12.00
2022-11-08T00:18:57.307Z,12.00
2022-11-08T00:21:26.047Z,12.00
2022-11-08T00:23:54.615Z,12.00
2022-11-08T00:26:23.152Z,11.90
2022-11-08T00:28:51.687Z,11.90
2022-11-08T00:31:21.670Z,11.90
2022-11-08T00:33:50.529Z,11.90
2022-11-08T00:36:19.097Z,11.90
2022-11-08T00:38:47.677Z,11.80
2022-11-08T00:41:16.303Z,11.80
2022-11-08T00:43:44.926Z,11.80
2022-11-08T00:46:13.379Z,11.80
2022-11-08T00:48:43.238Z,11.80
2022-11-08T00:51:13.305Z,11.80
2022-11-08T00:53:42.135Z,11.80
2022-11-08T00:56:12.911Z,11.90
2022-11-08T00:58:43.730Z,11.90
2022-11-08T01:01:14.452Z,11.90
2022-11-08T01:03:44.869Z,12.00
2022-11-08T01:06:15.373Z,12.00
2022-11-08T01:08:44.629Z,12.00
2022-11-08T01:11:16.479Z,12.10
2022-11-08T01:13:45.069Z,12.10
2022-11-08T01:16:15.517Z,12.10
2022-11-08T01:18:46.112Z,12.20
2022-11-08T01:21:15.676Z,12.20
2022-11-08T01:23:45.407Z,12.20
2022-11-08T01:26:15.676Z,12.20
2022-11-08T01:28:44.435Z,12.30
2022-11-08T01:31:15.776Z,12.30
2022-11-08T01:33:51.033Z,12.30
2022-11-08T01:36:22.021Z,12.30
2022-11-08T01:38:50.728Z,12.30
2022-11-08T01:41:20.807Z,12.30
2022-11-08T01:43:50.346Z,12.40
2022-11-08T01:46:46.238Z,12.40
2022-11-08T01:49:45.361Z,12.30
2022-11-08T01:52:25.761Z,12.40
2022-11-08T01:55:04.085Z,12.30
2022-11-08T01:57:37.273Z,12.20
2022-11-08T02:00:10.158Z,12.20
2022-11-08T02:02:39.795Z,12.20
2022-11-08T02:05:25.675Z,12.10
2022-11-08T02:07:58.504Z,12.10
2022-11-08T02:10:35.932Z,12.10
2022-11-08T02:13:08.597Z,12.00
2022-11-08T02:15:39.447Z,12.00
2022-11-08T02:18:08.462Z,12.00
2022-11-08T02:20:38.496Z,12.00
2022-11-08T02:23:18.208Z,12.00
2022-11-08T02:25:48.172Z,12.00
2022-11-08T02:28:17.520Z,12.00
2022-11-08T02:30:46.191Z,12.00
2022-11-08T02:33:19.732Z,11.90
2022-11-08T02:35:52.095Z,11.90
2022-11-08T02:38:21.403Z,11.90
2022-11-08T02:40:53.080Z,11.90
2022-11-08T02:43:22.961Z,11.80
2022-11-08T02:45:51.989Z,11.80
2022-11-08T02:48:21.435Z,11.80
2022-11-08T02:50:50.431Z,11.80
2022-11-08T02:53:19.443Z,11.80
2022-11-08T02:55:47.913Z,11.80
2022-11-08T02:58:17.984Z,11.80
2022-11-08T03:00:46.660Z,11.70
2022-11-08T03:03:15.120Z,11.70
2022-11-08T03:05:43.850Z,11.80
2022-11-08T03:08:12.330Z,11.70
2022-11-08T03:10:40.791Z,11.70
2022-11-08T03:13:09.369Z,11.70
2022-11-08T03:15:39.323Z,11.70
2022-11-08T03:18:08.191Z,11.70
2022-11-08T03:20:36.685Z,11.70
2022-11-08T03:23:06.905Z,11.70
2022-11-08T03:25:35.963Z,11.70
2022-11-08T03:28:05.158Z,11.70
2022-11-08T03:30:34.381Z,11.70
2022-11-08T03:33:04.715Z,11.70
2022-11-08T03:35:33.421Z,11.70
2022-11-08T03:38:01.917Z,11.70
2022-11-08T03:40:30.611Z,11.70
2022-11-08T03:42:59.121Z,11.70
2022-11-08T03:45:27.733Z,11.70
2022-11-08T03:47:56.237Z,11.70
2022-11-08T03:50:26.088Z,11.70
2022-11-08T03:52:56.157Z,11.70
2022-11-08T03:55:26.194Z,11.70
2022-11-08T03:57:55.048Z,11.70
2022-11-08T04:00:25.360Z,11.70
2022-11-08T04:02:55.851Z,11.70
2022-11-08T04:05:25.745Z,11.60
2022-11-08T04:07:54.269Z,11.60
2022-11-08T04:10:22.821Z,11.60
2022-11-08T04:13:08.847Z,11.60
2022-11-08T04:15:37.492Z,11.60
2022-11-08T04:18:23.699Z,11.50
2022-11-08T04:21:11.217Z,11.50
2022-11-08T04:23:39.760Z,11.50
2022-11-08T04:26:11.625Z,11.40
2022-11-08T04:28:42.173Z,11.40
2022-11-08T04:31:13.857Z,11.30
2022-11-08T04:33:42.868Z,11.30
2022-11-08T04:36:15.896Z,11.30
2022-11-08T04:38:44.895Z,11.20
2022-11-08T04:41:15.455Z,11.20
2022-11-08T04:43:44.063Z,11.20
2022-11-08T04:46:14.496Z,11.20
2022-11-08T04:48:44.519Z,11.10
2022-11-08T04:51:16.839Z,11.10
2022-11-08T04:53:45.374Z,11.10
2022-11-08T04:56:15.918Z,11.20
2022-11-08T04:58:46.364Z,11.20
2022-11-08T05:01:17.200Z,11.10
2022-11-08T05:03:48.049Z,11.20
2022-11-08T05:06:20.240Z,11.20
2022-11-08T05:08:48.971Z,11.20
2022-11-08T05:11:19.409Z,11.20
2022-11-08T05:13:48.370Z,11.20
2022-11-08T05:16:19.408Z,11.30
2022-11-08T05:18:48.496Z,11.30
2022-11-08T05:21:37.740Z,11.30
2022-11-08T05:24:08.419Z,11.30
2022-11-08T05:26:38.522Z,11.30
2022-11-08T05:29:07.329Z,11.30
2022-11-08T05:31:36.005Z,11.30
2022-11-08T05:34:04.775Z,11.30
2022-11-08T05:36:34.998Z,11.30
2022-11-08T05:39:03.852Z,11.30
2022-11-08T05:41:32.556Z,11.30
2022-11-08T05:44:01.056Z,11.30
2022-11-08T05:46:29.569Z,11.30
2022-11-08T05:48:58.275Z,11.30
2022-11-08T05:51:26.918Z,11.30
2022-11-08T05:53:56.776Z,11.30
2022-11-08T05:56:25.286Z,11.20
2022-11-08T05:58:53.769Z,11.30
2022-11-08T06:01:22.319Z,11.30
2022-11-08T06:03:50.859Z,11.30
2022-11-08T06:06:21.269Z,11.30
2022-11-08T06:08:51.920Z,11.20
2022-11-08T06:11:26.329Z,11.20
2022-11-08T06:13:56.071Z,11.30
2022-11-08T06:16:25.505Z,11.20
2022-11-08T06:18:54.193Z,11.20
2022-11-08T06:21:23.486Z,11.20
2022-11-08T06:23:54.461Z,11.20
2022-11-08T06:26:25.189Z,11.20
2022-11-08T06:28:53.908Z,11.20
2022-11-08T06:31:22.464Z,11.20
2022-11-08T06:33:51.377Z,11.20
2022-11-08T06:36:21.437Z,11.20
2022-11-08T06:38:54.583Z,11.20
2022-11-08T06:41:24.765Z,11.20
2022-11-08T06:43:53.656Z,11.20
2022-11-08T06:46:22.174Z,11.20
2022-11-08T06:48:50.916Z,11.20
2022-11-08T06:51:19.597Z,11.20
2022-11-08T06:53:48.220Z,11.20
2022-11-08T06:56:16.708Z,11.20
2022-11-08T06:58:46.617Z,11.30
2022-11-08T07:01:15.275Z,11.30
2022-11-08T07:03:43.764Z,11.30
2022-11-08T07:06:12.390Z,11.40
2022-11-08T07:08:40.975Z,11.30
2022-11-08T07:11:10.027Z,11.30
2022-11-08T07:13:38.541Z,11.30
2022-11-08T07:16:10.771Z,11.40
2022-11-08T07:18:39.504Z,11.40
2022-11-08T07:21:08.171Z,11.40
2022-11-08T07:23:36.708Z,11.50
2022-11-08T07:26:08.887Z,11.50
2022-11-08T07:28:37.500Z,11.50
2022-11-08T07:31:08.038Z,11.50
2022-11-08T07:33:37.644Z,11.50
2022-11-08T07:36:06.736Z,11.50
2022-11-08T07:38:35.326Z,11.50
2022-11-08T07:41:04.020Z,11.50
2022-11-08T07:43:32.607Z,11.50
2022-11-08T07:46:12.536Z,11.60
2022-11-08T07:48:41.053Z,11.60
2022-11-08T07:51:09.584Z,11.60
2022-11-08T07:53:38.184Z,11.60
2022-11-08T07:56:06.983Z,11.50
2022-11-08T07:58:35.747Z,11.50
2022-11-08T08:01:06.889Z,11.60
2022-11-08T08:03:37.509Z,11.60
2022-11-08T08:06:06.260Z,11.60
2022-11-08T08:08:34.831Z,11.70
2022-11-08T08:11:05.075Z,11.70
2022-11-08T08:13:33.639Z,11.70
2022-11-08T08:16:02.804Z,11.80
2022-11-08T08:18:31.826Z,11.80
2022-11-08T08:21:01.770Z,11.80
2022-11-08T08:23:30.448Z,11.90
2022-11-08T08:25:59.107Z,11.90
2022-11-08T08:28:27.641Z,12.00
2022-11-08T08:30:56.160Z,12.00
2022-11-08T08:33:34.154Z,12.00
2022-11-08T08:36:05.075Z,12.00
2022-11-08T08:38:37.652Z,12.10
2022-11-08T08:41:08.764Z,12.10
2022-11-08T08:43:37.562Z,12.20
2022-11-08T08:46:07.466Z,12.10
2022-11-08T08:48:38.482Z,12.20
2022-11-08T08:51:08.452Z,12.20
2022-11-08T08:53:36.984Z,12.30
2022-11-08T08:56:06.079Z,12.30
2022-11-08T08:58:35.060Z,12.30
2022-11-08T09:03:53.650Z,12.40
2022-11-08T09:06:23.568Z,12.50
2022-11-08T09:08:52.061Z,12.50
2022-11-08T09:11:20.517Z,12.60
2022-11-08T09:13:49.003Z,12.60
2022-11-08T09:16:17.528Z,12.60
2022-11-08T09:18:46.241Z,12.70
2022-11-08T09:21:14.826Z,12.70
2022-11-08T09:23:44.763Z,12.70
2022-11-08T09:26:13.308Z,12.70
2022-11-08T09:28:41.876Z,12.70
2022-11-08T09:31:12.078Z,12.70
2022-11-08T09:33:41.844Z,12.80
2022-11-08T09:36:14.277Z,12.80
2022-11-08T09:38:44.184Z,12.80
2022-11-08T09:41:41.013Z,12.90
2022-11-08T09:44:20.848Z,12.90
2022-11-08T09:46:53.642Z,12.80
2022-11-08T09:49:27.261Z,12.80
2022-11-08T09:51:56.072Z,12.70
2022-11-08T09:54:32.357Z,12.70
2022-11-08T09:57:04.374Z,12.70
2022-11-08T09:59:39.177Z,12.60
2022-11-08T10:02:17.651Z,12.60
2022-11-08T10:04:50.159Z,12.60
2022-11-08T10:07:29.192Z,12.70
2022-11-08T10:10:38.228Z,12.70
2022-11-08T10:13:18.920Z,12.70
2022-11-08T10:15:55.428Z,12.70
2022-11-08T10:18:39.379Z,12.80
2022-11-08T10:21:20.531Z,12.80
2022-11-08T10:23:55.749Z,12.80
2022-11-08T10:26:31.784Z,12.80
2022-11-08T10:29:04.057Z,12.80
2022-11-08T10:31:34.262Z,12.90
2022-11-08T10:34:04.507Z,12.90
2022-11-08T10:36:39.315Z,12.90
2022-11-08T10:39:15.871Z,12.90
2022-11-08T10:41:51.061Z,13.00
2022-11-08T10:44:21.976Z,13.00
2022-11-08T10:46:53.791Z,13.00
2022-11-08T10:49:25.547Z,13.10
2022-11-08T10:51:55.666Z,13.10
2022-11-08T10:54:51.667Z,13.20
2022-11-08T10:57:26.234Z,13.20
2022-11-08T10:59:56.861Z,13.20
2022-11-08T11:02:29.601Z,13.20
2022-11-08T11:05:24.680Z,13.30
2022-11-08T11:08:05.922Z,13.30
2022-11-08T11:10:36.587Z,13.30
2022-11-08T11:13:10.841Z,13.40
2022-11-08T11:15:46.421Z,13.40
2022-11-08T11:18:30.208Z,13.40
2022-11-08T11:21:05.290Z,13.50
2022-11-08T11:23:36.351Z,13.50
2022-11-08T11:26:06.572Z,13.50
2022-11-08T11:28:37.063Z,13.50
2022-11-08T11:31:17.379Z,13.50
2022-11-08T11:33:47.243Z,13.60
2022-11-08T11:36:20.468Z,13.60
2022-11-08T11:38:56.620Z,13.70
2022-11-08T11:41:30.916Z,13.70
2022-11-08T11:44:06.719Z,13.70
2022-11-08T11:46:48.323Z,13.60
2022-11-08T11:49:21.832Z,13.60
2022-11-08T11:51:53.911Z,13.70
2022-11-08T11:54:28.012Z,13.60
2022-11-08T11:57:00.317Z,13.60
2022-11-08T11:59:54.588Z,13.60
2022-11-08T12:02:47.329Z,13.60
2022-11-08T12:05:30.063Z,13.70
2022-11-08T12:08:13.927Z,13.70
2022-11-08T12:11:07.009Z,13.70
2022-11-08T12:13:54.014Z,13.70
2022-11-08T12:16:29.922Z,13.70
2022-11-08T12:19:17.056Z,13.70
2022-11-08T12:21:52.692Z,13.60
2022-11-08T12:24:41.981Z,13.60
2022-11-08T12:27:22.037Z,13.60
2022-11-08T12:29:57.839Z,13.70
2022-11-08T12:32:44.152Z,13.80
2022-11-08T12:35:32.503Z,14.00
2022-11-08T12:38:17.244Z,14.20
2022-11-08T12:40:53.152Z,14.40
2022-11-08T12:43:54.143Z,14.60
2022-11-08T12:46:22.764Z,14.80
2022-11-08T12:49:06.859Z,15.00
2022-11-08T12:51:53.340Z,15.10
2022-11-08T12:54:30.629Z,15.20
2022-11-08T12:57:03.490Z,15.40
2022-11-08T12:59:38.159Z,15.40
2022-11-08T13:02:16.620Z,15.50
2022-11-08T13:04:56.984Z,15.60
2022-11-08T13:07:37.446Z,15.60
2022-11-08T13:10:13.888Z,16.10
2022-11-08T13:12:49.713Z,15.80
2022-11-08T13:15:21.903Z,15.80
2022-11-08T13:18:27.777Z,15.90
2022-11-08T13:20:57.678Z,15.90
2022-11-08T13:23:29.744Z,15.90
2022-11-08T13:26:19.389Z,15.90
2022-11-08T13:28:48.955Z,15.90
2022-11-08T13:31:21.609Z,15.90
2022-11-08T13:34:14.081Z,15.90
2022-11-08T13:36:55.118Z,15.90
2022-11-08T13:40:10.987Z,15.90
2022-11-08T13:42:57.359Z,15.90
2022-11-08T13:45:32.020Z,16.00
2022-11-08T13:48:03.067Z,16.00
2022-11-08T13:50:52.300Z,16.00
2022-11-08T13:53:57.950Z,16.00
2022-11-08T13:56:43.277Z,16.00
2022-11-08T13:59:54.224Z,16.00
2022-11-08T14:02:44.545Z,16.50
2022-11-08T14:05:28.892Z,16.00
2022-11-08T14:08:19.677Z,16.00
2022-11-08T14:11:11.992Z,16.10
2022-11-08T14:13:56.241Z,16.10
2022-11-08T14:16:30.010Z,16.20
2022-11-08T14:19:15.220Z,16.20
2022-11-08T14:21:49.646Z,16.30
2022-11-08T14:24:21.272Z,16.40
2022-11-08T14:26:51.227Z,16.40
2022-11-08T14:29:22.072Z,16.50
2022-11-08T14:32:03.066Z,16.40
2022-11-08T14:34:34.172Z,16.50
2022-11-08T14:37:03.528Z,16.50
2022-11-08T14:39:33.818Z,16.40
2022-11-08T14:42:06.395Z,16.40
2022-11-08T14:44:36.068Z,16.40
2022-11-08T14:47:05.469Z,16.40
2022-11-08T14:49:35.593Z,16.40
2022-11-08T14:52:16.187Z,16.40
2022-11-08T14:54:47.439Z,16.30
2022-11-08T14:57:37.246Z,16.20
2022-11-08T15:00:15.877Z,16.20
2022-11-08T15:02:47.059Z,16.20
2022-11-08T15:05:37.939Z,16.20
2022-11-08T15:08:16.398Z,16.20
2022-11-08T15:10:54.781Z,16.20
2022-11-08T15:13:25.708Z,16.10
2022-11-08T15:15:57.434Z,16.20
2022-11-08T15:18:32.576Z,16.10
2022-11-08T15:21:04.570Z,16.10
2022-11-08T15:23:42.304Z,16.10
2022-11-08T15:26:25.760Z,16.10
2022-11-08T15:29:06.812Z,16.10
2022-11-08T15:31:40.511Z,16.10
2022-11-08T15:34:21.394Z,16.00
2022-11-08T15:36:50.520Z,16.00
2022-11-08T15:39:23.703Z,16.00
2022-11-08T15:42:02.984Z,16.00
2022-11-08T15:44:32.982Z,15.90
2022-11-08T15:47:01.482Z,15.90
2022-11-08T15:49:30.859Z,15.90
2022-11-08T15:51:59.592Z,15.90
2022-11-08T15:54:28.315Z,15.90
2022-11-08T15:56:57.922Z,15.80
2022-11-08T15:59:30.616Z,15.80
2022-11-08T16:02:02.638Z,15.80
2022-11-08T16:04:31.623Z,15.70
2022-11-08T16:07:02.849Z,15.70
2022-11-08T16:09:31.559Z,15.60
2022-11-08T16:12:00.762Z,15.60
2022-11-08T16:14:29.266Z,15.60
2022-11-08T16:16:58.276Z,15.60
2022-11-08T16:19:28.096Z,15.60
2022-11-08T16:21:56.776Z,15.50
2022-11-08T16:24:25.279Z,15.50
2022-11-08T16:26:54.071Z,15.50
2022-11-08T16:29:25.120Z,15.50
2022-11-08T16:31:53.722Z,15.50
2022-11-08T16:34:23.256Z,15.50
2022-11-08T16:36:54.592Z,15.50
2022-11-08T16:39:26.155Z,15.60
2022-11-08T16:41:54.750Z,15.60
2022-11-08T16:44:23.277Z,15.50
2022-11-08T16:46:53.770Z,15.60
2022-11-08T16:49:24.993Z,15.50
2022-11-08T16:51:54.893Z,15.50
2022-11-08T16:54:28.327Z,15.50
2022-11-08T16:57:20.526Z,15.60
2022-11-08T16:59:45.773Z,15.60
2022-11-08T17:02:22.056Z,15.60
2022-11-08T17:04:50.615Z,15.60
2022-11-08T17:07:20.545Z,15.60
2022-11-08T17:09:49.053Z,15.70
2022-11-08T17:12:17.533Z,15.70
2022-11-08T17:14:46.102Z,15.70
2022-11-08T17:17:15.840Z,15.70
2022-11-08T17:19:44.349Z,15.70
2022-11-08T17:22:12.812Z,15.80
2022-11-08T17:24:43.321Z,15.70
2022-11-08T17:27:11.805Z,15.70
2022-11-08T17:29:40.528Z,15.70
2022-11-08T17:32:09.395Z,15.60
2022-11-08T17:34:39.808Z,15.60
2022-11-08T17:37:08.559Z,15.50
2022-11-08T17:39:37.059Z,15.50
2022-11-08T17:42:07.075Z,15.40
2022-11-08T17:44:35.848Z,15.40
2022-11-08T17:47:04.848Z,15.40
2022-11-08T17:49:33.760Z,15.40
2022-11-08T17:52:02.273Z,15.40
2022-11-08T17:54:30.857Z,15.40
2022-11-08T17:56:59.534Z,15.40
2022-11-08T17:59:29.548Z,15.40
2022-11-08T18:01:59.566Z,15.40
2022-11-08T18:04:28.460Z,15.40
2022-11-08T18:06:57.077Z,15.50
2022-11-08T18:09:26.329Z,15.50
2022-11-08T18:11:56.900Z,15.60
2022-11-08T18:14:28.672Z,15.60
2022-11-08T18:16:59.780Z,15.70
2022-11-08T18:19:28.320Z,15.70
2022-11-08T18:21:56.818Z,15.70
2022-11-08T18:24:25.317Z,15.70
2022-11-08T18:26:53.872Z,15.80
2022-11-08T18:29:22.660Z,15.80
2022-11-08T18:31:51.216Z,15.90
2022-11-08T18:34:21.080Z,15.90
2022-11-08T18:36:49.652Z,15.80
2022-11-08T18:39:19.750Z,15.90
2022-11-08T18:41:48.752Z,15.80
2022-11-08T18:44:17.436Z,15.80
2022-11-08T18:46:45.947Z,15.80
2022-11-08T18:49:14.628Z,15.80
2022-11-08T18:51:44.496Z,15.70
2022-11-08T18:54:13.232Z,15.80
2022-11-08T18:56:41.741Z,15.80
2022-11-08T18:59:10.267Z,15.70
2022-11-08T19:01:38.824Z,15.70
2022-11-08T19:04:07.585Z,15.60
2022-11-08T19:06:36.639Z,15.70
2022-11-08T19:09:06.567Z,15.70
2022-11-08T19:11:35.129Z,15.60
2022-11-08T19:14:03.785Z,15.60
2022-11-08T19:16:32.532Z,15.60
2022-11-08T19:19:01.071Z,15.60
2022-11-08T19:21:29.832Z,15.50
2022-11-08T19:23:59.898Z,15.50
2022-11-08T19:26:30.187Z,15.50
2022-11-08T19:28:59.176Z,15.50
2022-11-08T19:31:27.869Z,15.50
2022-11-08T19:33:56.441Z,15.40
2022-11-08T19:36:27.934Z,15.40
2022-11-08T19:38:57.961Z,15.40
2022-11-08T19:41:28.924Z,15.30
2022-11-08T19:43:58.909Z,15.30
2022-11-08T19:46:30.116Z,15.40
2022-11-08T19:49:01.284Z,15.30
2022-11-08T19:51:31.601Z,15.30
2022-11-08T19:54:02.589Z,15.30
2022-11-08T19:57:02.512Z,15.40
2022-11-08T19:59:21.495Z,15.30
2022-11-08T20:01:50.147Z,15.40
2022-11-08T20:04:19.195Z,15.50
2022-11-08T20:06:47.824Z,15.50
2022-11-08T20:09:16.360Z,15.50
2022-11-08T20:11:45.307Z,15.60
2022-11-08T20:14:14.975Z,15.60
2022-11-08T20:16:50.686Z,15.60
2022-11-08T20:19:21.816Z,15.60
2022-11-08T20:21:50.491Z,15.70
2022-11-08T20:24:19.649Z,15.70
2022-11-08T20:26:48.241Z,15.70
2022-11-08T20:29:16.999Z,15.80
2022-11-08T20:31:46.832Z,15.80
2022-11-08T20:34:15.311Z,15.90
2022-11-08T20:36:44.827Z,15.90
2022-11-08T20:39:14.776Z,15.90
2022-11-08T20:41:43.973Z,15.90
2022-11-08T20:44:12.649Z,16.00
2022-11-08T20:46:41.340Z,16.10
2022-11-08T20:49:11.453Z,16.10
2022-11-08T20:51:39.925Z,16.10
2022-11-08T20:54:10.369Z,16.10
2022-11-08T20:56:39.012Z,16.00
2022-11-08T20:59:07.581Z,16.00
2022-11-08T21:01:36.465Z,16.00
2022-11-08T21:04:05.292Z,16.00
2022-11-08T21:06:36.533Z,16.00
2022-11-08T21:11:54.915Z,15.90
2022-11-08T21:14:24.594Z,15.90
2022-11-08T21:17:20.354Z,15.90
2022-11-08T21:19:42.209Z,15.90
2022-11-08T21:22:17.749Z,15.80
2022-11-08T21:24:49.455Z,15.80
2022-11-08T21:27:18.284Z,15.80
2022-11-08T21:29:46.851Z,15.80
2022-11-08T21:32:15.399Z,15.70
2022-11-08T21:34:46.011Z,15.70
2022-11-08T21:37:16.488Z,15.70
2022-11-08T21:39:45.082Z,15.60
2022-11-08T21:42:14.042Z,15.60
2022-11-08T21:44:42.848Z,15.70
2022-11-08T21:47:12.016Z,15.60
2022-11-08T21:49:40.559Z,15.60
2022-11-08T21:52:09.131Z,15.50
2022-11-08T21:54:40.460Z,15.50
2022-11-08T21:57:08.946Z,15.50
2022-11-08T21:59:37.733Z,15.60
2022-11-08T22:02:06.536Z,15.50
2022-11-08T22:04:35.143Z,15.50
2022-11-08T22:07:04.124Z,15.50
2022-11-08T22:09:32.676Z,15.50
2022-11-08T22:12:02.517Z,15.50
2022-11-08T22:14:31.148Z,15.50
2022-11-08T22:16:59.610Z,15.40
2022-11-08T22:19:28.187Z,15.40
2022-11-08T22:21:56.756Z,15.40
2022-11-08T22:24:25.253Z,15.30
2022-11-08T22:26:53.899Z,15.30
2022-11-08T22:29:23.859Z,15.30
2022-11-08T22:31:52.900Z,15.30
2022-11-08T22:34:21.634Z,15.30
2022-11-08T22:36:50.885Z,15.20
2022-11-08T22:39:20.991Z,15.20
2022-11-08T22:41:51.417Z,15.20
2022-11-08T22:44:25.055Z,15.20
2022-11-08T22:46:53.571Z,15.20
2022-11-08T22:49:22.152Z,15.20
2022-11-08T22:51:50.724Z,15.20
2022-11-08T22:54:19.316Z,15.20
2022-11-08T22:56:48.176Z,15.20
2022-11-08T22:59:16.731Z,15.10
2022-11-08T23:01:46.606Z,15.10
2022-11-08T23:04:15.187Z,15.10
2022-11-08T23:06:43.833Z,15.10
2022-11-08T23:09:12.713Z,15.10
2022-11-08T23:11:58.704Z,15.10
2022-11-08T23:14:43.704Z,15.10
2022-11-08T23:17:13.524Z,15.00
2022-11-08T23:19:59.334Z,15.00
2022-11-08T23:22:45.441Z,15.10
2022-11-08T23:25:13.908Z,15.10
2022-11-08T23:27:59.988Z,15.10
2022-11-08T23:30:46.235Z,15.00
2022-11-08T23:33:16.105Z,15.00
2022-11-08T23:36:04.674Z,15.00
2022-11-08T23:38:33.144Z,14.90
2022-11-08T23:41:19.008Z,15.00
2022-11-08T23:44:04.951Z,15.00
2022-11-08T23:46:33.795Z,15.00
2022-11-08T23:49:04.234Z,15.10
2022-11-08T23:51:32.933Z,15.00
2022-11-08T23:54:01.427Z,15.10
2022-11-08T23:56:30.167Z,15.10
2022-11-08T23:59:00.411Z,15.10
